Time;durP1;ratioP1;P1;durP2;ratioP2;P2;SDS_P1;SDS_P2;PMS_P1;PMS_P2;Temp;Humidity;BMP_temperature;BMP_pressure;BME280_temperature;BME280_humidity;BME280_pressure;Samples;Min_cycle;Max_cycle;Signal;HPM_P1;HPM_P2
2022/04/28 00:00:07;;;;;;;;;;;19.60;50.10;;;;;;5104505;28;19926;-67
2022/04/28 00:02:33;;;;;;;;;;;19.70;50.10;;;;;;5099959;28;20014;-67
2022/04/28 00:05:00;;;;;;;;;;;19.60;50.10;;;;;;5092672;28;19920;-68
2022/04/28 00:07:25;;;;;;;;;;;19.70;50.10;;;;;;5103723;28;19920;-67
2022/04/28 00:09:51;;;;;;;;;;;19.60;50.10;;;;;;5111858;28;20322;-68
2022/04/28 00:12:17;;;;;;;;;;;19.60;50.10;;;;;;5104774;28;19932;-68
2022/04/28 00:14:43;;;;;;;;;;;19.60;50.00;;;;;;5106090;28;19916;-68
2022/04/28 00:17:09;;;;;;;;;;;19.60;50.00;;;;;;5102274;28;19916;-67
2022/04/28 00:19:35;;;;;;;;;;;19.60;50.10;;;;;;5107921;28;19920;-67
2022/04/28 00:22:00;;;;;;;;;;;19.60;50.00;;;;;;5104131;28;20374;-67
2022/04/28 00:24:26;;;;;;;;;;;19.60;50.00;;;;;;5094258;28;19920;-68
2022/04/28 00:26:52;;;;;;;;;;;19.60;50.00;;;;;;5092832;28;20070;-68
2022/04/28 00:29:17;;;;;;;;;;;19.60;49.90;;;;;;5097669;28;19919;-67
2022/04/28 00:31:43;;;;;;;;;;;19.60;50.00;;;;;;5103524;27;19939;-68
2022/04/28 00:34:08;;;;;;;;;;;19.60;50.00;;;;;;5092678;28;19916;-67
2022/04/28 00:36:34;;;;;;;;;;;19.60;49.90;;;;;;5106466;28;19916;-68
2022/04/28 00:39:00;;;;;;;;;;;19.60;49.90;;;;;;5112350;28;19947;-68
2022/04/28 00:41:25;;;;;;;;;;;19.60;49.90;;;;;;5101509;28;19946;-68
2022/04/28 00:43:52;;;;;;;;;;;19.60;49.90;;;;;;5099504;28;20080;-68
2022/04/28 00:46:21;;;;;;;;;;;19.50;50.00;;;;;;5093969;28;19924;-66
2022/04/28 00:51:32;;;;;;;;;;;19.60;49.80;;;;;;5108686;28;19995;-68
2022/04/28 00:53:58;;;;;;;;;;;19.60;49.80;;;;;;5093832;28;19953;-68
2022/04/28 00:56:24;;;;;;;;;;;19.60;49.80;;;;;;5104544;28;19923;-67
2022/04/28 00:58:50;;;;;;;;;;;19.60;49.80;;;;;;5111638;28;19915;-67
2022/04/28 01:01:16;;;;;;;;;;;19.50;49.80;;;;;;5105270;28;19926;-67
2022/04/28 01:03:42;;;;;;;;;;;19.60;49.80;;;;;;5093088;28;20398;-68
2022/04/28 01:06:07;;;;;;;;;;;19.50;49.80;;;;;;5092325;28;20768;-67
2022/04/28 01:08:33;;;;;;;;;;;19.60;49.80;;;;;;5097779;28;19915;-69
2022/04/28 01:10:59;;;;;;;;;;;19.60;49.80;;;;;;5104241;28;19939;-68
2022/04/28 01:13:24;;;;;;;;;;;19.60;49.80;;;;;;5099710;28;19947;-68
2022/04/28 01:15:50;;;;;;;;;;;19.50;49.70;;;;;;5096051;28;20813;-69
2022/04/28 01:18:17;;;;;;;;;;;19.50;49.70;;;;;;5109792;28;19923;-69
2022/04/28 01:20:42;;;;;;;;;;;19.50;49.70;;;;;;5097208;28;19919;-68
2022/04/28 01:23:08;;;;;;;;;;;19.50;49.60;;;;;;5106694;28;19915;-68
2022/04/28 01:25:34;;;;;;;;;;;19.50;49.60;;;;;;5108591;28;19923;-68
2022/04/28 01:28:00;;;;;;;;;;;19.50;49.60;;;;;;5097613;28;19916;-68
2022/04/28 01:30:25;;;;;;;;;;;19.50;49.70;;;;;;5100957;28;20630;-69
2022/04/28 01:32:51;;;;;;;;;;;19.50;49.60;;;;;;5096303;28;20295;-68
2022/04/28 01:35:17;;;;;;;;;;;19.50;49.60;;;;;;5101507;28;19927;-69
2022/04/28 01:37:43;;;;;;;;;;;19.60;49.60;;;;;;5098410;28;19915;-69
2022/04/28 01:40:11;;;;;;;;;;;19.50;49.60;;;;;;5111050;28;19919;-69
2022/04/28 01:42:38;;;;;;;;;;;19.50;49.60;;;;;;5100581;28;19923;-69
2022/04/28 01:45:06;;;;;;;;;;;19.50;49.50;;;;;;5102982;28;19924;-69
2022/04/28 01:47:31;;;;;;;;;;;19.50;49.60;;;;;;5109818;28;19920;-68
2022/04/28 01:49:57;;;;;;;;;;;19.50;49.50;;;;;;5105142;28;19919;-68
2022/04/28 01:55:07;;;;;;;;;;;19.50;49.50;;;;;;5093699;28;20010;-69
2022/04/28 01:57:32;;;;;;;;;;;19.50;49.50;;;;;;5102579;28;20015;-68
2022/04/28 01:59:58;;;;;;;;;;;19.50;49.50;;;;;;5101339;28;19962;-68
2022/04/28 02:02:24;;;;;;;;;;;19.50;49.50;;;;;;5106874;28;19924;-68
2022/04/28 02:04:50;;;;;;;;;;;19.50;49.50;;;;;;5109216;28;19922;-68
2022/04/28 02:07:16;;;;;;;;;;;19.50;49.50;;;;;;5110356;28;19923;-69
2022/04/28 02:09:42;;;;;;;;;;;19.50;49.50;;;;;;5109050;28;19966;-68
2022/04/28 02:12:08;;;;;;;;;;;19.50;49.50;;;;;;5104729;28;19931;-67
2022/04/28 02:14:34;;;;;;;;;;;19.50;49.50;;;;;;5095606;28;19924;-68
2022/04/28 02:17:00;;;;;;;;;;;19.50;49.40;;;;;;5110912;28;19923;-68
2022/04/28 02:19:26;;;;;;;;;;;19.50;49.40;;;;;;5104479;28;19984;-69
2022/04/28 02:21:51;;;;;;;;;;;19.50;49.40;;;;;;5103057;28;19916;-68
2022/04/28 02:24:17;;;;;;;;;;;19.50;49.40;;;;;;5101356;28;19935;-69
2022/04/28 02:26:43;;;;;;;;;;;19.50;49.40;;;;;;5094420;28;20053;-68
2022/04/28 02:29:08;;;;;;;;;;;19.50;49.40;;;;;;5109459;28;20014;-69
2022/04/28 02:31:34;;;;;;;;;;;19.50;49.40;;;;;;5114536;28;19930;-69
2022/04/28 02:33:59;;;;;;;;;;;19.50;49.40;;;;;;5114514;28;19919;-67
2022/04/28 02:36:26;;;;;;;;;;;19.50;49.40;;;;;;5110723;28;19955;-68
2022/04/28 02:38:51;;;;;;;;;;;19.50;49.40;;;;;;5108946;28;20039;-69
2022/04/28 02:41:20;;;;;;;;;;;19.50;49.40;;;;;;5113794;28;20463;-68
2022/04/28 02:43:49;;;;;;;;;;;19.50;49.40;;;;;;5114814;28;19916;-69
2022/04/28 02:46:15;;;;;;;;;;;19.50;49.40;;;;;;5114651;28;19923;-68
2022/04/28 02:48:41;;;;;;;;;;;19.50;49.40;;;;;;5095536;28;19916;-68
2022/04/28 02:51:07;;;;;;;;;;;19.50;49.40;;;;;;5098607;28;19923;-68
2022/04/28 02:53:33;;;;;;;;;;;19.50;49.30;;;;;;5112378;28;19920;-68
2022/04/28 02:55:59;;;;;;;;;;;19.50;49.30;;;;;;5114974;28;19915;-68
2022/04/28 02:58:24;;;;;;;;;;;19.50;49.40;;;;;;5112984;27;20289;-68
2022/04/28 03:00:50;;;;;;;;;;;19.50;49.30;;;;;;5093751;28;19923;-68
2022/04/28 03:03:15;;;;;;;;;;;19.50;49.30;;;;;;5102616;28;20624;-68
2022/04/28 03:11:10;;;;;;;;;;;19.50;49.20;;;;;;5105610;28;19920;-68
2022/04/28 03:13:36;;;;;;;;;;;19.50;49.20;;;;;;5102606;28;19920;-68
2022/04/28 03:16:01;;;;;;;;;;;19.50;49.20;;;;;;5103283;28;19931;-68
2022/04/28 03:18:27;;;;;;;;;;;19.50;49.20;;;;;;5094460;28;19920;-68
2022/04/28 03:20:53;;;;;;;;;;;19.50;49.20;;;;;;5112436;28;19999;-68
2022/04/28 03:23:19;;;;;;;;;;;19.50;49.20;;;;;;5101487;28;20719;-69
2022/04/28 03:25:44;;;;;;;;;;;19.50;49.20;;;;;;5112211;28;19923;-69
2022/04/28 03:28:10;;;;;;;;;;;19.50;49.20;;;;;;5102862;28;19916;-69
2022/04/28 03:30:36;;;;;;;;;;;19.50;49.20;;;;;;5101611;28;19954;-68
2022/04/28 03:33:01;;;;;;;;;;;19.50;49.20;;;;;;5113695;28;20281;-68
2022/04/28 03:35:27;;;;;;;;;;;19.50;49.20;;;;;;5100004;28;20286;-68
2022/04/28 03:37:53;;;;;;;;;;;19.50;49.10;;;;;;5103371;28;19928;-69
2022/04/28 03:40:18;;;;;;;;;;;19.50;49.20;;;;;;5093929;28;19924;-69
2022/04/28 03:42:44;;;;;;;;;;;19.50;49.20;;;;;;5105618;28;19978;-69
2022/04/28 03:45:11;;;;;;;;;;;19.50;49.20;;;;;;5112360;28;20282;-68
2022/04/28 03:47:36;;;;;;;;;;;19.50;49.10;;;;;;5105057;28;19927;-67
2022/04/28 03:50:03;;;;;;;;;;;19.50;49.20;;;;;;5094570;28;20345;-69
2022/04/28 03:52:29;;;;;;;;;;;19.50;49.10;;;;;;5096273;28;19924;-69
2022/04/28 03:54:55;;;;;;;;;;;19.50;49.10;;;;;;5109194;28;19920;-71
2022/04/28 03:57:20;;;;;;;;;;;19.50;49.10;;;;;;5097892;28;20255;-68
2022/04/28 03:59:46;;;;;;;;;;;19.50;49.10;;;;;;5113209;28;19915;-68
2022/04/28 04:02:12;;;;;;;;;;;19.50;49.10;;;;;;5105838;28;19980;-68
2022/04/28 04:04:37;;;;;;;;;;;19.50;49.10;;;;;;5102310;28;19923;-68
2022/04/28 04:07:03;;;;;;;;;;;19.50;49.10;;;;;;5112071;28;19963;-69
2022/04/28 04:09:29;;;;;;;;;;;19.50;49.10;;;;;;5113486;28;19916;-68
2022/04/28 04:11:54;;;;;;;;;;;19.40;49.00;;;;;;5100898;28;19923;-68
2022/04/28 04:14:20;;;;;;;;;;;19.50;49.10;;;;;;5101576;28;19923;-68
2022/04/28 04:16:45;;;;;;;;;;;19.50;49.10;;;;;;5092878;28;19920;-69
2022/04/28 04:19:11;;;;;;;;;;;19.50;49.10;;;;;;5101260;28;19919;-69
2022/04/28 04:21:37;;;;;;;;;;;19.40;49.00;;;;;;5107277;28;19920;-68
2022/04/28 04:24:03;;;;;;;;;;;19.50;49.10;;;;;;5112136;28;19922;-68
2022/04/28 04:26:28;;;;;;;;;;;19.50;49.10;;;;;;5110309;28;20000;-68
2022/04/28 04:28:54;;;;;;;;;;;19.40;49.00;;;;;;5095903;28;19931;-69
2022/04/28 04:34:03;;;;;;;;;;;19.50;49.00;;;;;;5096995;28;19927;-69
2022/04/28 04:36:29;;;;;;;;;;;19.50;49.00;;;;;;5111091;28;19919;-69
2022/04/28 04:38:55;;;;;;;;;;;19.40;49.00;;;;;;5098742;28;19923;-69
2022/04/28 04:41:20;;;;;;;;;;;19.50;49.00;;;;;;5111833;28;19922;-67
2022/04/28 04:43:46;;;;;;;;;;;19.50;49.00;;;;;;5096186;28;19916;-68
2022/04/28 04:46:12;;;;;;;;;;;19.50;49.00;;;;;;5111723;28;19919;-69
2022/04/28 04:48:37;;;;;;;;;;;19.50;49.00;;;;;;5112702;28;19977;-69
2022/04/28 04:51:03;;;;;;;;;;;19.50;49.00;;;;;;5112520;28;19919;-68
2022/04/28 05:57:47;;;;;;;;;;;19.50;48.90;;;;;;5654313;23;20433;-74
2022/04/28 06:00:12;;;;;;;;;;;19.60;49.00;;;;;;5046510;28;19924;-73
2022/04/28 06:02:38;;;;;;;;;;;19.60;49.00;;;;;;5058273;28;20108;-73
2022/04/28 06:05:04;;;;;;;;;;;19.50;48.90;;;;;;5023393;28;19924;-73
2022/04/28 06:07:29;;;;;;;;;;;19.60;48.90;;;;;;5038384;28;19928;-74
2022/04/28 06:09:55;;;;;;;;;;;19.60;49.00;;;;;;5031618;28;19924;-73
2022/04/28 06:12:20;;;;;;;;;;;19.60;49.80;;;;;;5033075;28;20327;-72
2022/04/28 06:14:49;;;;;;;;;;;19.60;49.00;;;;;;5020175;28;19928;-73
2022/04/28 06:17:14;;;;;;;;;;;19.60;49.00;;;;;;5042235;28;19924;-73
2022/04/28 06:19:40;;;;;;;;;;;19.60;49.00;;;;;;5057114;28;20019;-74
2022/04/28 06:22:05;;;;;;;;;;;19.60;49.20;;;;;;5036013;28;19959;-76
2022/04/28 06:24:31;;;;;;;;;;;19.70;49.20;;;;;;5023695;28;19943;-75
2022/04/28 06:26:56;;;;;;;;;;;19.60;49.10;;;;;;5031458;28;20347;-76
2022/04/28 06:29:22;;;;;;;;;;;19.70;49.40;;;;;;5057311;28;19920;-76
2022/04/28 06:31:48;;;;;;;;;;;19.70;49.40;;;;;;5020832;28;19925;-75
2022/04/28 06:34:14;;;;;;;;;;;19.70;49.50;;;;;;5036840;28;20406;-71
2022/04/28 06:36:39;;;;;;;;;;;19.80;49.50;;;;;;5035669;28;19934;-70
2022/04/28 06:39:05;;;;;;;;;;;19.70;49.50;;;;;;5034258;28;19932;-71
2022/04/28 06:41:30;;;;;;;;;;;19.80;49.70;;;;;;5051511;28;19921;-71
2022/04/28 06:43:56;;;;;;;;;;;19.80;49.80;;;;;;5032159;28;19967;-70
2022/04/28 06:46:22;;;;;;;;;;;19.90;49.90;;;;;;5016533;28;20322;-71
2022/04/28 06:48:47;;;;;;;;;;;19.90;49.80;;;;;;5032645;28;19932;-71
2022/04/28 06:51:13;;;;;;;;;;;19.90;49.60;;;;;;5039923;28;19920;-72
2022/04/28 06:53:39;;;;;;;;;;;19.90;49.50;;;;;;5034800;28;19936;-69
2022/04/28 06:56:08;;;;;;;;;;;19.90;49.30;;;;;;5039322;28;20410;-72
2022/04/28 06:58:34;;;;;;;;;;;20.00;49.30;;;;;;5027772;28;19928;-73
2022/04/28 07:00:59;;;;;;;;;;;20.00;49.00;;;;;;5032398;28;19925;-73
2022/04/28 07:03:25;;;;;;;;;;;20.00;48.90;;;;;;5030124;28;19932;-74
2022/04/28 07:05:50;;;;;;;;;;;20.00;48.90;;;;;;5034413;28;20015;-75
2022/04/28 07:08:16;;;;;;;;;;;20.10;49.10;;;;;;5028788;28;20059;-75
2022/04/28 07:10:41;;;;;;;;;;;20.10;49.20;;;;;;5035476;28;20314;-75
2022/04/28 07:13:08;;;;;;;;;;;20.10;49.40;;;;;;5007903;28;19920;-73
2022/04/28 07:15:35;;;;;;;;;;;20.10;49.50;;;;;;5019447;28;19921;-75
2022/04/28 07:18:03;;;;;;;;;;;20.20;49.60;;;;;;5030741;28;19928;-75
2022/04/28 07:20:32;;;;;;;;;;;20.20;49.60;;;;;;5031394;28;20312;-74
2022/04/28 07:22:59;;;;;;;;;;;20.20;49.70;;;;;;5017901;28;20007;-74
2022/04/28 07:25:25;;;;;;;;;;;20.20;49.80;;;;;;5037439;28;19921;-75
2022/04/28 07:27:51;;;;;;;;;;;20.20;49.70;;;;;;5032353;28;20003;-74
2022/04/28 07:30:18;;;;;;;;;;;20.30;49.80;;;;;;5041182;28;20043;-75
2022/04/28 07:32:43;;;;;;;;;;;20.20;49.80;;;;;;5039635;28;20066;-75
2022/04/28 07:35:09;;;;;;;;;;;20.30;49.90;;;;;;5039367;28;20230;-75
2022/04/28 07:37:34;;;;;;;;;;;20.30;50.00;;;;;;5023469;28;20744;-75
2022/04/28 07:40:00;;;;;;;;;;;20.30;49.90;;;;;;5034835;28;19920;-77
2022/04/28 07:42:25;;;;;;;;;;;20.40;50.00;;;;;;5021088;28;19921;-76
2022/04/28 07:44:51;;;;;;;;;;;20.30;49.90;;;;;;5039983;28;19929;-78
2022/04/28 07:47:17;;;;;;;;;;;20.40;49.90;;;;;;5037741;28;19921;-77
2022/04/28 07:49:42;;;;;;;;;;;20.40;49.90;;;;;;5039798;28;20384;-75
2022/04/28 07:52:08;;;;;;;;;;;20.40;49.90;;;;;;5035158;28;20087;-74
2022/04/28 07:54:33;;;;;;;;;;;20.40;49.70;;;;;;5041850;28;19932;-73
2022/04/28 07:56:59;;;;;;;;;;;20.40;49.80;;;;;;5038799;28;19924;-72
2022/04/28 07:59:24;;;;;;;;;;;20.50;49.90;;;;;;5061543;28;19963;-76
2022/04/28 08:01:50;;;;;;;;;;;20.50;50.00;;;;;;5036855;28;19925;-74
2022/04/28 08:04:15;;;;;;;;;;;20.50;50.00;;;;;;5035665;28;20376;-75
2022/04/28 08:06:41;;;;;;;;;;;20.50;49.80;;;;;;5050530;28;19928;-75
2022/04/28 08:09:06;;;;;;;;;;;20.50;49.50;;;;;;5042291;28;19935;-75
2022/04/28 08:11:31;;;;;;;;;;;20.50;49.30;;;;;;5040294;28;20477;-73
2022/04/28 08:13:57;;;;;;;;;;;20.50;49.30;;;;;;5028465;28;19925;-73
2022/04/28 08:16:22;;;;;;;;;;;20.50;49.20;;;;;;5029484;28;19960;-74
2022/04/28 08:18:49;;;;;;;;;;;20.60;49.30;;;;;;5031971;28;19920;-73
2022/04/28 08:21:14;;;;;;;;;;;20.50;49.30;;;;;;5052785;28;19928;-74
2022/04/28 08:23:40;;;;;;;;;;;20.60;49.30;;;;;;5035076;28;19928;-73
2022/04/28 08:26:05;;;;;;;;;;;20.60;49.20;;;;;;5048961;28;19935;-74
2022/04/28 08:28:31;;;;;;;;;;;20.60;49.20;;;;;;5021422;28;19925;-74
2022/04/28 08:30:56;;;;;;;;;;;20.60;49.10;;;;;;5020607;28;20316;-75
2022/04/28 08:33:22;;;;;;;;;;;20.60;49.00;;;;;;5035819;28;19928;-73
2022/04/28 08:35:47;;;;;;;;;;;20.60;48.90;;;;;;5040131;28;19974;-73
2022/04/28 08:38:13;;;;;;;;;;;20.70;49.00;;;;;;5052830;28;19932;-74
2022/04/28 08:40:39;;;;;;;;;;;20.70;48.90;;;;;;5034345;28;19973;-75
2022/04/28 08:43:05;;;;;;;;;;;20.70;49.00;;;;;;5030791;28;19930;-73
2022/04/28 08:45:37;;;;;;;;;;;20.70;49.10;;;;;;5037370;28;19932;-73
2022/04/28 08:48:02;;;;;;;;;;;20.80;49.10;;;;;;5037159;28;20392;-73
2022/04/28 08:50:28;;;;;;;;;;;20.80;48.90;;;;;;5033889;28;20011;-74
2022/04/28 08:52:54;;;;;;;;;;;20.80;49.00;;;;;;5035434;28;20378;-74
2022/04/28 08:55:20;;;;;;;;;;;20.80;48.90;;;;;;5030166;28;19921;-74
2022/04/28 08:57:46;;;;;;;;;;;20.90;48.80;;;;;;5033510;28;19921;-72
2022/04/28 09:00:11;;;;;;;;;;;20.90;48.80;;;;;;5038123;28;20402;-74
2022/04/28 09:02:39;;;;;;;;;;;20.90;48.70;;;;;;5041684;28;19924;-73
2022/04/28 09:05:07;;;;;;;;;;;21.00;48.60;;;;;;5038839;28;19929;-73
2022/04/28 09:07:34;;;;;;;;;;;21.00;48.40;;;;;;5038668;28;19987;-73
2022/04/28 09:09:59;;;;;;;;;;;21.00;48.30;;;;;;5055553;28;20006;-74
2022/04/28 09:12:25;;;;;;;;;;;21.00;48.20;;;;;;5038078;28;20015;-73
2022/04/28 09:14:51;;;;;;;;;;;21.10;48.20;;;;;;5038156;28;19927;-73
2022/04/28 09:17:20;;;;;;;;;;;21.10;48.10;;;;;;5061234;28;19924;-73
2022/04/28 09:19:46;;;;;;;;;;;21.10;48.10;;;;;;5034297;28;20015;-73
2022/04/28 09:22:13;;;;;;;;;;;21.10;48.00;;;;;;5036410;28;19925;-74
2022/04/28 09:24:44;;;;;;;;;;;21.10;47.90;;;;;;5037453;28;20304;-73
2022/04/28 09:27:10;;;;;;;;;;;21.10;47.90;;;;;;5039581;28;20031;-73
2022/04/28 09:29:39;;;;;;;;;;;21.20;48.00;;;;;;5018823;28;20324;-75
2022/04/28 09:32:12;;;;;;;;;;;21.10;47.90;;;;;;5036658;28;19985;-73
2022/04/28 09:34:46;;;;;;;;;;;21.20;47.90;;;;;;5043199;28;19947;-76
2022/04/28 09:37:15;;;;;;;;;;;21.10;47.70;;;;;;5041122;28;19935;-74
2022/04/28 09:42:31;;;;;;;;;;;21.10;47.60;;;;;;5041700;28;19928;-73
2022/04/28 09:44:59;;;;;;;;;;;21.20;47.60;;;;;;5056163;28;19928;-74
2022/04/28 09:47:24;;;;;;;;;;;21.10;47.60;;;;;;5039190;28;19935;-73
2022/04/28 09:49:55;;;;;;;;;;;21.20;47.80;;;;;;5057439;28;19920;-76
2022/04/28 09:52:28;;;;;;;;;;;21.20;47.80;;;;;;5041958;28;19924;-76
2022/04/28 09:54:56;;;;;;;;;;;21.20;47.70;;;;;;5057540;28;19931;-75
2022/04/28 09:57:22;;;;;;;;;;;21.20;47.60;;;;;;5024768;28;20334;-76
2022/04/28 09:59:55;;;;;;;;;;;21.20;47.60;;;;;;5035616;28;19986;-75
2022/04/28 10:02:21;;;;;;;;;;;21.20;47.50;;;;;;5049284;28;19982;-76
2022/04/28 10:04:48;;;;;;;;;;;21.20;47.50;;;;;;5016399;28;20395;-77
2022/04/28 10:07:16;;;;;;;;;;;21.10;47.40;;;;;;5027304;28;20375;-76
2022/04/28 10:09:43;;;;;;;;;;;21.20;47.50;;;;;;5020781;28;19936;-77
2022/04/28 10:12:09;;;;;;;;;;;21.20;47.50;;;;;;5035244;28;19928;-77
2022/04/28 10:14:38;;;;;;;;;;;21.10;47.50;;;;;;5038382;28;20303;-72
2022/04/28 10:17:05;;;;;;;;;;;21.10;47.40;;;;;;5053155;28;19924;-71
2022/04/28 10:19:34;;;;;;;;;;;21.20;47.50;;;;;;5055238;28;20402;-71
2022/04/28 10:22:04;;;;;;;;;;;21.10;47.20;;;;;;5030520;28;19983;-72
2022/04/28 10:33:01;;;;;;;;;;;21.10;46.80;;;;;;5044165;28;19920;-70
2022/04/28 10:35:53;;;;;;;;;;;21.10;46.70;;;;;;5031716;28;19931;-70
2022/04/28 10:38:31;;;;;;;;;;;21.10;46.80;;;;;;5051597;28;19924;-69
2022/04/28 10:40:58;;;;;;;;;;;21.00;46.70;;;;;;5026494;28;20368;-69
2022/04/28 10:43:25;;;;;;;;;;;21.00;46.50;;;;;;5025417;28;19920;-70
2022/04/28 10:45:52;;;;;;;;;;;21.00;46.60;;;;;;5035481;28;19920;-72
2022/04/28 10:48:24;;;;;;;;;;;21.00;46.30;;;;;;5018426;28;19928;-73
2022/04/28 10:51:13;;;;;;;;;;;21.00;46.20;;;;;;5030325;28;19932;-71
2022/04/28 10:53:58;;;;;;;;;;;21.00;46.20;;;;;;5020581;28;19978;-72
2022/04/28 10:56:24;;;;;;;;;;;20.90;46.10;;;;;;5052880;28;19971;-71
2022/04/28 10:58:50;;;;;;;;;;;20.90;46.00;;;;;;5029987;28;20788;-72
2022/04/28 11:01:29;;;;;;;;;;;20.90;45.90;;;;;;5062890;28;19963;-71
2022/04/28 11:03:56;;;;;;;;;;;20.90;45.80;;;;;;5021633;28;19920;-72
2022/04/28 11:06:27;;;;;;;;;;;20.90;45.80;;;;;;5043513;28;20019;-71
2022/04/28 11:08:54;;;;;;;;;;;20.90;45.80;;;;;;5032198;28;20330;-72
2022/04/28 11:11:29;;;;;;;;;;;20.90;45.70;;;;;;5058467;28;19943;-71
2022/04/28 11:13:58;;;;;;;;;;;20.90;45.70;;;;;;5031542;28;19929;-71
2022/04/28 11:16:25;;;;;;;;;;;20.90;45.60;;;;;;5033707;28;19920;-71
2022/04/28 11:18:52;;;;;;;;;;;20.90;45.60;;;;;;5049757;28;19924;-73
2022/04/28 11:21:18;;;;;;;;;;;20.80;45.50;;;;;;5043709;28;19936;-72
2022/04/28 11:23:45;;;;;;;;;;;20.80;45.60;;;;;;5039122;28;19932;-72
2022/04/28 11:26:12;;;;;;;;;;;20.80;45.50;;;;;;5033734;28;20061;-71
2022/04/28 11:28:37;;;;;;;;;;;20.80;45.30;;;;;;5025941;28;19924;-73
2022/04/28 11:31:10;;;;;;;;;;;20.80;45.40;;;;;;5057210;28;19931;-72
2022/04/28 11:33:38;;;;;;;;;;;20.80;45.50;;;;;;5023099;28;19928;-73
2022/04/28 11:36:13;;;;;;;;;;;20.80;45.50;;;;;;5042176;28;20824;-75
2022/04/28 11:38:47;;;;;;;;;;;20.80;45.50;;;;;;5060034;28;19963;-74
2022/04/28 11:41:13;;;;;;;;;;;20.90;45.50;;;;;;5035979;28;19928;-70
2022/04/28 11:43:38;;;;;;;;;;;20.90;45.50;;;;;;5057137;28;19940;-71
2022/04/28 11:46:04;;;;;;;;;;;20.90;45.50;;;;;;5036009;28;19924;-73
2022/04/28 11:48:30;;;;;;;;;;;20.80;45.50;;;;;;5021498;28;19924;-70
2022/04/28 11:51:02;;;;;;;;;;;20.90;45.50;;;;;;5054901;28;19956;-72
2022/04/28 11:53:38;;;;;;;;;;;20.80;45.40;;;;;;5022127;28;19926;-72
2022/04/28 11:56:12;;;;;;;;;;;20.80;45.50;;;;;;5021935;28;19924;-71
2022/04/28 11:58:38;;;;;;;;;;;20.80;45.40;;;;;;5039218;28;20395;-72
2022/04/28 12:01:03;;;;;;;;;;;20.80;45.50;;;;;;5055758;28;19930;-72
2022/04/28 12:03:30;;;;;;;;;;;20.80;45.50;;;;;;5039071;28;20418;-69
2022/04/28 12:05:56;;;;;;;;;;;20.80;45.30;;;;;;5021721;28;20281;-72
2022/04/28 12:08:23;;;;;;;;;;;20.80;45.30;;;;;;5038230;28;19941;-71
2022/04/28 12:16:18;;;;;;;;;;;20.80;45.30;;;;;;5034674;28;20047;-70
2022/04/28 12:21:36;;;;;;;;;;;20.80;45.30;;;;;;5037819;28;19924;-70
2022/04/28 12:24:09;;;;;;;;;;;20.80;45.30;;;;;;5056931;28;19920;-71
2022/04/28 12:26:36;;;;;;;;;;;20.80;45.40;;;;;;5056282;28;20363;-72
2022/04/28 12:29:08;;;;;;;;;;;20.80;45.30;;;;;;5053405;28;20326;-72
2022/04/28 12:31:34;;;;;;;;;;;20.80;45.30;;;;;;5037461;28;19924;-74
2022/04/28 12:34:07;;;;;;;;;;;20.80;45.20;;;;;;5031528;28;19928;-70
2022/04/28 12:36:43;;;;;;;;;;;20.80;45.30;;;;;;5038322;28;20363;-71
2022/04/28 12:39:08;;;;;;;;;;;20.80;45.30;;;;;;5034990;28;19920;-70
2022/04/28 12:41:40;;;;;;;;;;;20.80;45.30;;;;;;5037226;28;19931;-71
2022/04/28 12:44:06;;;;;;;;;;;20.80;45.30;;;;;;5034284;28;19935;-70
2022/04/28 12:46:34;;;;;;;;;;;20.80;45.30;;;;;;5034809;28;19917;-72
2022/04/28 12:49:04;;;;;;;;;;;20.80;45.30;;;;;;5036130;28;20397;-71
2022/04/28 12:51:30;;;;;;;;;;;20.80;45.20;;;;;;5035070;28;19935;-71
2022/04/28 12:54:13;;;;;;;;;;;20.80;45.30;;;;;;5039450;28;19920;-72
2022/04/28 12:56:39;;;;;;;;;;;20.80;45.20;;;;;;5036705;28;19929;-76
2022/04/28 12:59:06;;;;;;;;;;;20.80;45.20;;;;;;5038479;28;19925;-70
2022/04/28 13:01:32;;;;;;;;;;;20.80;45.20;;;;;;5025713;28;20019;-71
2022/04/28 13:03:57;;;;;;;;;;;20.80;45.20;;;;;;5031909;28;19921;-73
2022/04/28 13:06:24;;;;;;;;;;;20.80;45.20;;;;;;5035847;28;19932;-72
2022/04/28 13:08:51;;;;;;;;;;;20.80;45.30;;;;;;5050252;28;20368;-73
2022/04/28 13:11:27;;;;;;;;;;;20.80;45.30;;;;;;5059199;28;19929;-71
2022/04/28 13:13:53;;;;;;;;;;;20.80;45.30;;;;;;5046839;28;20019;-70
2022/04/28 13:16:19;;;;;;;;;;;20.80;45.30;;;;;;5027193;28;20025;-73
2022/04/28 13:18:45;;;;;;;;;;;20.80;45.20;;;;;;5034115;28;19928;-75
2022/04/28 13:21:12;;;;;;;;;;;20.80;45.30;;;;;;5028280;28;20360;-73
2022/04/28 13:23:41;;;;;;;;;;;20.80;45.30;;;;;;5014433;28;20020;-70
2022/04/28 13:26:08;;;;;;;;;;;20.80;45.10;;;;;;5037695;28;19924;-72
2022/04/28 13:28:33;;;;;;;;;;;20.90;45.00;;;;;;5032614;28;20416;-73
2022/04/28 13:30:58;;;;;;;;;;;20.90;45.00;;;;;;5030183;28;19920;-74
2022/04/28 13:33:24;;;;;;;;;;;20.90;45.00;;;;;;5012537;28;20016;-76
2022/04/28 13:35:49;;;;;;;;;;;20.90;45.10;;;;;;5033082;28;20364;-72
2022/04/28 13:38:16;;;;;;;;;;;20.90;45.10;;;;;;5035569;28;19959;-73
2022/04/28 13:40:41;;;;;;;;;;;20.90;44.90;;;;;;5041746;28;19966;-71
2022/04/28 13:43:07;;;;;;;;;;;20.90;45.70;;;;;;5032484;28;19924;-73
2022/04/28 13:45:33;;;;;;;;;;;20.90;45.00;;;;;;5047782;28;19924;-74
2022/04/28 13:47:58;;;;;;;;;;;20.90;45.00;;;;;;5012895;28;19925;-72
2022/04/28 13:50:24;;;;;;;;;;;20.90;45.00;;;;;;5031876;28;19928;-72
2022/04/28 13:52:50;;;;;;;;;;;20.90;45.10;;;;;;5053115;28;19978;-73
2022/04/28 13:55:16;;;;;;;;;;;21.00;45.40;;;;;;5036736;28;19928;-73
2022/04/28 13:57:42;;;;;;;;;;;21.00;45.50;;;;;;5049082;28;20308;-75
2022/04/28 14:00:08;;;;;;;;;;;21.10;45.40;;;;;;5030891;28;19924;-75
2022/04/28 14:02:34;;;;;;;;;;;21.00;45.50;;;;;;5047259;28;19946;-75
2022/04/28 14:04:59;;;;;;;;;;;21.00;45.70;;;;;;5031453;28;20443;-75
2022/04/28 14:07:25;;;;;;;;;;;21.00;45.70;;;;;;5054576;28;20415;-74
2022/04/28 14:09:52;;;;;;;;;;;21.00;45.80;;;;;;5036685;28;19932;-74
2022/04/28 14:12:17;;;;;;;;;;;21.00;45.80;;;;;;5029374;28;19929;-75
2022/04/28 14:14:43;;;;;;;;;;;21.00;45.80;;;;;;5034521;28;20337;-72
2022/04/28 14:17:09;;;;;;;;;;;21.10;45.90;;;;;;5011994;28;19935;-73
2022/04/28 14:19:34;;;;;;;;;;;21.00;45.70;;;;;;5022255;28;19924;-75
2022/04/28 14:22:01;;;;;;;;;;;21.00;45.50;;;;;;5028780;28;19932;-73
2022/04/28 14:24:26;;;;;;;;;;;21.00;45.50;;;;;;5032421;28;19920;-74
2022/04/28 14:26:52;;;;;;;;;;;21.00;45.30;;;;;;5033661;28;19928;-74
2022/04/28 14:29:18;;;;;;;;;;;21.00;45.40;;;;;;5037694;28;19928;-74
2022/04/28 14:31:44;;;;;;;;;;;21.00;45.20;;;;;;5033021;28;19921;-74
2022/04/28 14:34:10;;;;;;;;;;;21.00;45.30;;;;;;5031319;28;20076;-75
2022/04/28 14:36:35;;;;;;;;;;;21.00;45.30;;;;;;5046557;28;19931;-74
2022/04/28 14:39:01;;;;;;;;;;;21.00;45.30;;;;;;5033712;28;19924;-74
2022/04/28 14:41:26;;;;;;;;;;;21.00;45.30;;;;;;5016987;28;19920;-74
2022/04/28 14:43:52;;;;;;;;;;;21.00;45.30;;;;;;5031462;28;19925;-74
2022/04/28 14:46:17;;;;;;;;;;;21.00;45.30;;;;;;5019350;28;19944;-72
2022/04/28 14:54:12;;;;;;;;;;;21.00;45.40;;;;;;5032111;28;21503;-74
2022/04/28 14:56:37;;;;;;;;;;;21.00;45.40;;;;;;5042995;28;19933;-74
2022/04/28 14:59:03;;;;;;;;;;;21.00;45.50;;;;;;5034814;28;19982;-74
2022/04/28 15:01:28;;;;;;;;;;;21.00;45.50;;;;;;5031740;28;20299;-73
2022/04/28 15:03:54;;;;;;;;;;;21.00;45.50;;;;;;5032913;28;19929;-74
2022/04/28 15:06:20;;;;;;;;;;;20.90;45.50;;;;;;5035125;28;20312;-74
2022/04/28 15:08:45;;;;;;;;;;;20.90;45.60;;;;;;5036212;28;20372;-73
2022/04/28 15:11:12;;;;;;;;;;;20.90;45.50;;;;;;5061899;28;20039;-74
2022/04/28 15:13:37;;;;;;;;;;;20.90;45.50;;;;;;5041173;28;19921;-74
2022/04/28 15:16:03;;;;;;;;;;;20.90;45.60;;;;;;5038203;28;20099;-74
2022/04/28 15:18:28;;;;;;;;;;;20.90;45.60;;;;;;5039284;28;19970;-73
2022/04/28 15:20:55;;;;;;;;;;;20.90;45.70;;;;;;5035411;28;19939;-73
2022/04/28 15:23:20;;;;;;;;;;;20.90;45.70;;;;;;5037428;28;19927;-74
2022/04/28 15:25:46;;;;;;;;;;;20.90;45.70;;;;;;5037361;28;19924;-73
2022/04/28 15:28:12;;;;;;;;;;;20.90;45.80;;;;;;5015625;28;19928;-73
2022/04/28 15:30:38;;;;;;;;;;;20.90;45.80;;;;;;5033090;28;19924;-72
2022/04/28 15:33:05;;;;;;;;;;;20.90;45.80;;;;;;5036818;28;19982;-73
2022/04/28 15:35:30;;;;;;;;;;;20.80;45.70;;;;;;5036533;28;19928;-73
2022/04/28 15:37:56;;;;;;;;;;;20.80;45.80;;;;;;5036529;28;19975;-73
2022/04/28 15:40:21;;;;;;;;;;;20.80;45.80;;;;;;5013453;28;20011;-72
2022/04/28 15:42:49;;;;;;;;;;;20.80;45.80;;;;;;5041662;28;19966;-73
2022/04/28 15:45:15;;;;;;;;;;;20.90;45.90;;;;;;5037403;28;19972;-74
2022/04/28 15:47:40;;;;;;;;;;;20.80;45.90;;;;;;5041341;28;19963;-72
2022/04/28 15:50:06;;;;;;;;;;;20.80;45.90;;;;;;5041778;28;19920;-74
2022/04/28 15:52:32;;;;;;;;;;;20.80;45.90;;;;;;5043984;28;19970;-74
2022/04/28 15:54:57;;;;;;;;;;;20.80;45.90;;;;;;5042200;28;19920;-73